createdAt,value
2018-04-02T00:02:04.746Z,11.33
2018-04-02T00:04:32.115Z,11.23
2018-04-02T00:06:59.477Z,12.60
2018-04-02T00:09:26.856Z,12.40
2018-04-02T00:11:54.197Z,12.13
2018-04-02T00:14:21.563Z,12.37
2018-04-02T00:16:48.905Z,12.07
2018-04-02T00:19:16.273Z,10.43
2018-04-02T00:21:43.623Z,11.50
2018-04-02T00:24:10.994Z,10.87
2018-04-02T00:26:38.337Z,12.03
2018-04-02T00:29:05.718Z,10.07
2018-04-02T00:31:33.062Z,11.10
2018-04-02T00:34:00.435Z,10.50
2018-04-02T00:36:27.790Z,11.83
2018-04-02T00:38:55.146Z,9.67
2018-04-02T00:41:22.493Z,10.23
2018-04-02T00:43:49.881Z,11.70
2018-04-02T00:46:17.238Z,10.60
2018-04-02T00:48:44.595Z,11.80
2018-04-02T00:51:12.042Z,11.37
2018-04-02T00:53:39.383Z,11.10
2018-04-02T00:56:06.762Z,10.90
2018-04-02T00:58:34.120Z,10.87
2018-04-02T01:01:01.494Z,12.27
2018-04-02T01:03:28.834Z,10.47
2018-04-02T01:05:56.211Z,11.23
2018-04-02T01:08:23.553Z,11.13
2018-04-02T01:10:50.926Z,10.93
2018-04-02T01:13:18.270Z,10.80
2018-04-02T01:15:45.644Z,12.10
2018-04-02T01:18:12.988Z,11.13
2018-04-02T01:20:40.364Z,11.97
2018-04-02T01:23:07.733Z,11.30
2018-04-02T01:25:35.097Z,11.27
2018-04-02T01:28:02.443Z,10.57
2018-04-02T01:30:29.811Z,10.90
2018-04-02T01:32:57.150Z,12.43
2018-04-02T01:35:24.527Z,11.63
2018-04-02T01:37:51.863Z,11.20
2018-04-02T01:40:19.239Z,11.60
2018-04-02T01:42:46.586Z,11.00
2018-04-02T01:45:13.960Z,11.77
2018-04-02T01:47:41.314Z,10.90
2018-04-02T01:50:08.722Z,13.00
2018-04-02T01:52:36.062Z,11.10
2018-04-02T01:55:03.439Z,11.10
2018-04-02T01:57:30.789Z,10.70
2018-04-02T01:59:58.188Z,11.13
2018-04-02T02:02:25.543Z,11.37
2018-04-02T02:04:53.471Z,11.98
2018-04-02T02:07:20.815Z,10.63
2018-04-02T02:09:48.187Z,11.63
2018-04-02T02:12:15.565Z,10.50
2018-04-02T02:14:42.956Z,11.47
2018-04-02T02:17:10.298Z,11.63
2018-04-02T02:19:37.636Z,10.47
2018-04-02T02:22:05.040Z,11.23
2018-04-02T02:24:32.381Z,11.13
2018-04-02T02:26:59.741Z,11.43
2018-04-02T02:29:27.086Z,11.50
2018-04-02T02:31:54.451Z,11.87
2018-04-02T02:34:21.796Z,12.50
2018-04-02T02:36:49.172Z,11.03
2018-04-02T02:39:16.516Z,11.23
2018-04-02T02:41:43.886Z,12.73
2018-04-02T02:44:11.231Z,12.17
2018-04-02T02:46:38.603Z,11.50
2018-04-02T02:49:05.941Z,12.53
2018-04-02T02:51:33.301Z,11.80
2018-04-02T02:54:00.646Z,11.57
2018-04-02T02:56:28.031Z,12.10
2018-04-02T02:58:55.378Z,10.60
2018-04-02T03:01:22.752Z,12.20
2018-04-02T03:03:50.093Z,11.10
2018-04-02T03:06:17.458Z,11.97
2018-04-02T03:08:44.930Z,10.83
2018-04-02T03:11:12.298Z,10.93
2018-04-02T03:13:39.658Z,12.50
2018-04-02T03:16:07.032Z,10.97
2018-04-02T03:18:34.370Z,11.80
2018-04-02T03:21:02.385Z,12.65
2018-04-02T03:23:29.722Z,12.10
2018-04-02T03:25:57.095Z,11.60
2018-04-02T03:28:24.434Z,11.40
2018-04-02T03:30:51.812Z,12.50
2018-04-02T03:33:19.162Z,11.60
2018-04-02T03:35:46.556Z,11.53
2018-04-02T03:38:13.899Z,12.53
2018-04-02T03:40:41.266Z,12.17
2018-04-02T03:43:08.616Z,12.20
2018-04-02T03:45:35.950Z,12.80
2018-04-02T03:48:03.328Z,12.60
2018-04-02T03:50:30.667Z,10.40
2018-04-02T03:52:58.036Z,11.97
2018-04-02T03:55:25.379Z,11.33
2018-04-02T03:57:52.750Z,12.93
2018-04-02T04:00:20.091Z,10.97
2018-04-02T04:02:47.459Z,11.97
2018-04-02T04:05:14.810Z,10.63
2018-04-02T04:07:42.185Z,13.80
2018-04-02T04:10:09.544Z,11.73
2018-04-02T04:12:36.914Z,12.17
2018-04-02T04:15:04.263Z,11.50
2018-04-02T04:17:31.636Z,12.43
2018-04-02T04:19:58.972Z,12.83
2018-04-02T04:22:26.356Z,12.27
2018-04-02T04:24:53.690Z,11.73
2018-04-02T04:27:21.063Z,10.97
2018-04-02T04:29:48.419Z,11.33
2018-04-02T04:32:15.782Z,12.03
2018-04-02T04:34:43.143Z,11.00
2018-04-02T04:37:10.519Z,11.13
2018-04-02T04:39:37.854Z,12.03
2018-04-02T04:42:05.237Z,12.80
2018-04-02T04:44:32.584Z,10.80
2018-04-02T04:46:59.955Z,10.80
2018-04-02T04:49:27.294Z,10.87
2018-04-02T04:51:54.657Z,10.90
2018-04-02T04:54:21.996Z,12.10
2018-04-02T04:56:49.359Z,11.80
2018-04-02T04:59:16.703Z,12.23
2018-04-02T05:01:44.071Z,10.93
2018-04-02T05:04:11.431Z,10.57
2018-04-02T05:06:38.798Z,11.30
2018-04-02T05:09:06.147Z,11.37
2018-04-02T05:11:33.515Z,11.37
2018-04-02T05:14:00.857Z,11.23
2018-04-02T05:16:28.200Z,11.30
2018-04-02T05:18:55.570Z,10.63
2018-04-02T05:21:22.909Z,11.23
2018-04-02T05:23:50.288Z,10.80
2018-04-02T05:26:17.657Z,10.60
2018-04-02T05:28:45.034Z,10.17
2018-04-02T05:31:12.402Z,11.67
2018-04-02T05:33:39.769Z,11.13
2018-04-02T05:36:07.105Z,10.83
2018-04-02T05:38:34.488Z,11.27
2018-04-02T05:41:02.411Z,10.68
2018-04-02T05:43:29.774Z,11.40
2018-04-02T05:45:57.117Z,11.57
2018-04-02T05:48:24.503Z,10.73
2018-04-02T05:50:51.854Z,10.53
2018-04-02T05:53:19.229Z,9.90
2018-04-02T05:55:46.565Z,9.40
2018-04-02T05:58:13.930Z,10.20
2018-04-02T06:00:41.275Z,9.90
2018-04-02T06:03:08.651Z,10.30
2018-04-02T06:05:35.991Z,11.20
2018-04-02T06:08:03.355Z,11.17
2018-04-02T06:10:30.718Z,10.40
2018-04-02T06:12:58.080Z,10.40
2018-04-02T06:15:25.422Z,10.07
2018-04-02T06:17:52.779Z,9.63
2018-04-02T06:20:20.118Z,10.77
2018-04-02T06:22:47.488Z,10.07
2018-04-02T06:25:14.861Z,10.57
2018-04-02T06:27:42.243Z,10.90
2018-04-02T06:30:09.578Z,9.37
2018-04-02T06:32:36.932Z,8.90
2018-04-02T06:35:04.273Z,9.87
2018-04-02T06:37:31.652Z,8.83
2018-04-02T06:39:59.007Z,13.13
2018-04-02T06:42:26.378Z,14.40
2018-04-02T06:44:53.718Z,15.93
2018-04-02T06:47:21.055Z,9.93
2018-04-02T06:49:48.415Z,10.00
2018-04-02T06:52:15.763Z,8.80
2018-04-02T06:54:43.139Z,9.10
2018-04-02T06:57:10.469Z,8.63
2018-04-02T06:59:37.825Z,8.90
2018-04-02T07:02:05.170Z,8.63
2018-04-02T07:04:32.570Z,8.80
2018-04-02T07:06:59.921Z,9.40
2018-04-02T07:09:27.312Z,8.93
2018-04-02T07:11:54.645Z,12.03
2018-04-02T07:14:22.019Z,8.13
2018-04-02T07:16:49.362Z,12.40
2018-04-02T07:19:16.733Z,8.97
2018-04-02T07:21:44.066Z,8.00
2018-04-02T07:24:11.426Z,8.80
2018-04-02T07:26:38.771Z,8.43
2018-04-02T07:29:06.130Z,7.93
2018-04-02T07:31:33.492Z,7.70
2018-04-02T07:34:00.846Z,7.53
2018-04-02T07:36:28.187Z,6.50
2018-04-02T07:38:55.539Z,6.90
2018-04-02T07:41:22.883Z,7.47
2018-04-02T07:43:50.247Z,8.47
2018-04-02T07:46:17.569Z,6.43
2018-04-02T07:48:44.934Z,6.70
2018-04-02T07:51:12.276Z,13.83
2018-04-02T07:53:39.635Z,8.80
2018-04-02T07:56:06.969Z,9.77
2018-04-02T07:58:34.322Z,7.70
2018-04-02T08:01:01.678Z,11.23
2018-04-02T08:03:29.040Z,9.60
2018-04-02T08:05:56.381Z,9.40
2018-04-02T08:08:23.743Z,9.00
2018-04-02T08:10:51.084Z,8.90
2018-04-02T08:13:18.449Z,9.20
2018-04-02T08:15:45.819Z,10.30
2018-04-02T08:18:13.151Z,7.50
2018-04-02T08:20:40.518Z,8.07
2018-04-02T08:23:07.859Z,6.87
2018-04-02T08:25:35.217Z,7.27
2018-04-02T08:28:02.551Z,7.60
2018-04-02T08:30:29.906Z,6.77
2018-04-02T08:32:57.242Z,8.70
2018-04-02T08:35:24.597Z,6.40
2018-04-02T08:37:51.936Z,7.37
2018-04-02T08:40:19.319Z,6.90
2018-04-02T08:42:46.656Z,7.67
2018-04-02T08:45:14.027Z,7.03
2018-04-02T08:47:41.350Z,6.37
2018-04-02T08:50:08.707Z,6.50
2018-04-02T08:52:36.045Z,7.00
2018-04-02T08:55:03.395Z,6.30
2018-04-02T08:57:30.723Z,6.90
2018-04-02T08:59:58.093Z,5.53
2018-04-02T09:02:25.434Z,6.23
2018-04-02T09:04:52.807Z,6.90
2018-04-02T09:07:20.159Z,7.07
2018-04-02T09:09:47.514Z,6.20
2018-04-02T09:12:14.838Z,5.67
2018-04-02T09:14:42.187Z,6.17
2018-04-02T09:17:09.516Z,6.97
2018-04-02T09:19:36.871Z,5.90
2018-04-02T09:22:04.213Z,5.00
2018-04-02T09:24:31.575Z,4.90
2018-04-02T09:26:58.929Z,5.00
2018-04-02T09:29:26.303Z,4.70
2018-04-02T09:31:53.630Z,3.80
2018-04-02T09:34:21.013Z,3.83
2018-04-02T09:36:48.359Z,4.37
2018-04-02T09:39:15.723Z,4.63
2018-04-02T09:41:43.063Z,4.47
2018-04-02T09:44:10.418Z,4.30
2018-04-02T09:46:37.746Z,4.50
2018-04-02T09:49:05.102Z,4.30
2018-04-02T09:51:32.453Z,5.07
2018-04-02T09:53:59.782Z,4.90
2018-04-02T09:56:27.140Z,4.40
2018-04-02T09:58:54.495Z,6.10
2018-04-02T10:01:21.857Z,8.93
2018-04-02T10:03:54.951Z,4.00
2018-04-02T10:06:22.303Z,4.27
2018-04-02T10:08:49.633Z,3.67
2018-04-02T10:11:16.996Z,3.97
2018-04-02T10:13:44.340Z,6.50
2018-04-02T10:16:11.714Z,4.27
2018-04-02T10:18:39.054Z,3.90
2018-04-02T10:21:06.412Z,3.30
2018-04-02T10:23:33.750Z,2.90
2018-04-02T10:26:01.267Z,3.97
2018-04-02T10:28:28.603Z,3.07
2018-04-02T10:30:55.971Z,3.30
2018-04-02T10:33:23.326Z,3.80
2018-04-02T10:35:50.683Z,4.07
2018-04-02T10:38:18.023Z,3.43
2018-04-02T10:40:45.384Z,3.87
2018-04-02T10:43:12.867Z,3.60
2018-04-02T10:45:40.266Z,3.70
2018-04-02T10:48:07.603Z,3.53
2018-04-02T10:50:34.958Z,3.77
2018-04-02T10:53:02.289Z,4.00
2018-04-02T10:55:29.639Z,3.93
2018-04-02T10:57:57.016Z,3.10
2018-04-02T11:00:24.661Z,2.97
2018-04-02T11:02:52.007Z,3.60
2018-04-02T11:05:19.374Z,3.10
2018-04-02T11:07:46.710Z,3.10
2018-04-02T11:10:14.070Z,3.20
2018-04-02T11:12:41.403Z,2.90
2018-04-02T11:15:08.758Z,3.10
2018-04-02T11:17:36.087Z,2.90
2018-04-02T11:20:03.438Z,2.90
2018-04-02T11:22:30.771Z,3.03
2018-04-02T11:24:58.120Z,3.10
2018-04-02T11:27:25.482Z,3.27
2018-04-02T11:29:52.812Z,3.70
2018-04-02T11:32:20.167Z,2.83
2018-04-02T11:34:47.507Z,2.50
2018-04-02T11:37:14.858Z,2.50
2018-04-02T11:39:42.185Z,3.33
2018-04-02T11:42:09.551Z,3.20
2018-04-02T11:44:36.874Z,3.80
2018-04-02T11:47:04.226Z,9.60
2018-04-02T11:49:31.563Z,3.80
2018-04-02T11:51:58.919Z,3.97
2018-04-02T11:54:26.243Z,3.40
2018-04-02T11:56:53.595Z,2.40
2018-04-02T11:59:20.927Z,3.00
2018-04-02T12:01:48.282Z,3.20
2018-04-02T12:04:15.603Z,2.60
2018-04-02T12:06:42.984Z,2.60
2018-04-02T12:09:10.321Z,2.60
2018-04-02T12:11:37.678Z,3.67
2018-04-02T12:14:05.006Z,2.73
2018-04-02T12:16:32.367Z,2.90
2018-04-02T12:18:59.705Z,2.90
2018-04-02T12:21:27.062Z,3.50
2018-04-02T12:23:54.396Z,2.50
2018-04-02T12:26:21.758Z,2.60
2018-04-02T12:28:49.122Z,2.40
2018-04-02T12:31:16.478Z,2.00
2018-04-02T12:33:43.812Z,2.63
2018-04-02T12:36:11.158Z,2.37
2018-04-02T12:38:38.547Z,2.57
2018-04-02T12:41:05.876Z,2.43
2018-04-02T12:43:33.214Z,2.70
2018-04-02T12:46:00.582Z,2.33
2018-04-02T12:48:27.923Z,3.30
2018-04-02T12:50:55.273Z,2.50
2018-04-02T12:53:22.635Z,2.80
2018-04-02T12:55:49.967Z,2.83
2018-04-02T12:58:17.323Z,3.00
2018-04-02T13:00:44.661Z,2.70
2018-04-02T13:03:12.042Z,2.80
2018-04-02T13:05:39.375Z,2.87
2018-04-02T13:08:06.734Z,2.67
2018-04-02T13:10:34.081Z,2.33
2018-04-02T13:13:01.438Z,2.67
2018-04-02T13:15:28.788Z,2.63
2018-04-02T13:17:56.144Z,2.50
2018-04-02T13:20:23.477Z,2.93
2018-04-02T13:22:50.843Z,3.83
2018-04-02T13:25:18.170Z,3.00
2018-04-02T13:27:45.525Z,2.93
2018-04-02T13:30:12.851Z,2.70
2018-04-02T13:32:40.212Z,2.60
2018-04-02T13:35:07.540Z,1.97
2018-04-02T13:37:34.899Z,2.83
2018-04-02T13:40:02.235Z,2.37
2018-04-02T13:42:29.599Z,2.73
2018-04-02T13:44:56.952Z,3.20
2018-04-02T13:47:24.306Z,3.07
2018-04-02T13:49:51.639Z,2.77
2018-04-02T13:52:18.992Z,3.00
2018-04-02T13:54:46.353Z,2.50
2018-04-02T13:57:13.721Z,3.10
2018-04-02T13:59:41.045Z,3.03
2018-04-02T14:02:08.404Z,3.47
2018-04-02T14:04:35.745Z,2.13
2018-04-02T14:07:03.103Z,2.80
2018-04-02T14:09:30.450Z,2.97
2018-04-02T14:11:57.812Z,2.40
2018-04-02T14:14:25.155Z,2.00
2018-04-02T14:16:52.512Z,3.03
2018-04-02T14:19:19.838Z,2.57
2018-04-02T14:21:47.199Z,2.77
2018-04-02T14:24:14.810Z,2.70
2018-04-02T14:26:42.144Z,3.10
2018-04-02T14:29:09.502Z,3.20
2018-04-02T14:31:36.831Z,4.80
2018-04-02T14:34:04.510Z,2.80
2018-04-02T14:36:31.864Z,3.10
2018-04-02T14:39:00.532Z,3.20
2018-04-02T14:41:28.159Z,3.10
2018-04-02T14:43:55.539Z,2.80
2018-04-02T14:46:22.875Z,2.53
2018-04-02T14:48:50.231Z,3.00
2018-04-02T14:51:17.555Z,2.13
2018-04-02T14:53:44.901Z,2.20
2018-04-02T14:56:12.256Z,2.63
2018-04-02T14:58:39.610Z,19.73
2018-04-02T15:01:06.949Z,7.20
2018-04-02T15:03:34.317Z,2.43
2018-04-02T15:06:01.641Z,2.30
2018-04-02T15:08:28.990Z,2.40
2018-04-02T15:10:56.319Z,2.30
2018-04-02T15:13:23.670Z,2.60
2018-04-02T15:15:51.004Z,3.37
2018-04-02T15:18:18.485Z,2.20
2018-04-02T15:20:45.824Z,2.07
2018-04-02T15:23:13.183Z,1.83
2018-04-02T15:25:40.511Z,1.90
2018-04-02T15:28:07.870Z,2.17
2018-04-02T15:30:35.204Z,2.40
2018-04-02T15:33:02.569Z,2.47
2018-04-02T15:35:30.139Z,1.70
2018-04-02T15:37:57.501Z,1.83
2018-04-02T15:40:24.850Z,1.90
2018-04-02T15:42:52.462Z,2.00
2018-04-02T15:45:19.918Z,1.90
2018-04-02T15:47:47.278Z,2.10
2018-04-02T15:50:14.612Z,2.20
2018-04-02T15:52:41.968Z,1.73
2018-04-02T15:55:09.299Z,2.03
2018-04-02T15:57:36.684Z,1.70
2018-04-02T16:00:04.033Z,1.60
2018-04-02T16:02:31.446Z,1.77
2018-04-02T16:04:58.803Z,1.57
2018-04-02T16:07:26.130Z,1.37
2018-04-02T16:09:53.488Z,1.50
2018-04-02T16:12:20.827Z,1.60
2018-04-02T16:14:48.386Z,1.83
2018-04-02T16:17:15.748Z,1.53
2018-04-02T16:19:43.099Z,1.33
2018-04-02T16:22:10.421Z,1.37
2018-04-02T16:24:37.867Z,1.70
2018-04-02T16:27:05.234Z,1.60
2018-04-02T16:29:32.599Z,1.73
2018-04-02T16:31:59.930Z,1.73
2018-04-02T16:34:27.342Z,1.33
2018-04-02T16:36:54.672Z,2.20
2018-04-02T16:39:22.030Z,27.10
2018-04-02T16:41:49.390Z,12.73
2018-04-02T16:44:16.754Z,2.50
2018-04-02T16:46:44.094Z,1.80
2018-04-02T16:49:11.450Z,1.83
2018-04-02T16:51:38.797Z,1.90
2018-04-02T16:54:06.172Z,1.77
2018-04-02T16:56:33.499Z,1.37
2018-04-02T16:59:00.870Z,2.10
2018-04-02T17:01:28.208Z,2.10
2018-04-02T17:03:55.561Z,2.43
2018-04-02T17:06:22.969Z,2.00
2018-04-02T17:08:50.350Z,1.53
2018-04-02T17:11:17.703Z,2.00
2018-04-02T17:13:45.054Z,1.53
2018-04-02T17:16:12.464Z,1.47
2018-04-02T17:18:39.926Z,1.43
2018-04-02T17:21:07.256Z,1.47
2018-04-02T17:23:34.616Z,1.37
2018-04-02T17:26:02.534Z,2.00
2018-04-02T17:28:29.905Z,1.73
2018-04-02T17:30:57.249Z,2.03
2018-04-02T17:33:24.598Z,1.30
2018-04-02T17:35:51.967Z,1.30
2018-04-02T17:38:19.410Z,2.20
2018-04-02T17:40:46.772Z,2.17
2018-04-02T17:43:15.456Z,1.87
2018-04-02T17:45:42.864Z,1.63
2018-04-02T17:48:10.200Z,2.00
2018-04-02T17:50:37.738Z,1.80
2018-04-02T17:53:05.076Z,1.70
2018-04-02T17:55:32.883Z,1.87
2018-04-02T17:58:01.024Z,1.20
2018-04-02T18:00:28.402Z,2.37
2018-04-02T18:02:55.726Z,1.90
2018-04-02T18:05:23.084Z,2.10
2018-04-02T18:07:50.423Z,1.43
2018-04-02T18:10:17.793Z,2.73
2018-04-02T18:12:45.141Z,2.87
2018-04-02T18:15:12.496Z,2.80
2018-04-02T18:17:39.839Z,1.70
2018-04-02T18:20:07.191Z,3.60
2018-04-02T18:22:34.602Z,17.70
2018-04-02T18:25:02.622Z,2.77
2018-04-02T18:27:29.955Z,2.20
2018-04-02T18:29:57.318Z,2.80
2018-04-02T18:32:24.638Z,2.03
2018-04-02T18:34:51.995Z,2.27
2018-04-02T18:37:19.320Z,1.73
2018-04-02T18:39:46.691Z,2.23
2018-04-02T18:42:14.028Z,2.40
2018-04-02T18:44:41.386Z,2.57
2018-04-02T18:47:08.728Z,2.60
2018-04-02T18:49:36.094Z,1.90
2018-04-02T18:52:03.443Z,1.97
2018-04-02T18:54:30.801Z,2.23
2018-04-02T18:56:58.131Z,1.90
2018-04-02T18:59:25.486Z,1.97
2018-04-02T19:01:52.816Z,1.73
2018-04-02T19:04:20.184Z,2.23
2018-04-02T19:06:47.539Z,1.90
2018-04-02T19:09:14.871Z,1.93
2018-04-02T19:11:42.222Z,2.40
2018-04-02T19:14:09.547Z,1.90
2018-04-02T19:16:36.908Z,2.50
2018-04-02T19:19:04.234Z,2.80
2018-04-02T19:21:31.594Z,2.60
2018-04-02T19:23:58.938Z,2.50
2018-04-02T19:26:26.334Z,2.50
2018-04-02T19:28:53.671Z,2.83
2018-04-02T19:31:21.038Z,2.50
2018-04-02T19:33:48.394Z,2.97
2018-04-02T19:36:15.750Z,2.80
2018-04-02T19:38:43.089Z,3.10
2018-04-02T19:41:10.453Z,2.73
2018-04-02T19:43:37.782Z,2.60
2018-04-02T19:46:05.126Z,2.83
2018-04-02T19:48:32.469Z,2.97
2018-04-02T19:50:59.850Z,1.90
2018-04-02T19:53:27.170Z,2.33
2018-04-02T19:55:54.534Z,2.13
2018-04-02T19:58:21.874Z,2.67
2018-04-02T20:00:49.238Z,2.60
2018-04-02T20:03:16.569Z,2.40
2018-04-02T20:05:43.931Z,2.50
2018-04-02T20:08:11.285Z,2.80
2018-04-02T20:10:38.642Z,2.37
2018-04-02T20:13:05.966Z,2.70
2018-04-02T20:15:33.320Z,2.20
2018-04-02T20:18:00.658Z,3.00
2018-04-02T20:20:28.015Z,2.50
2018-04-02T20:22:55.431Z,2.73
2018-04-02T20:25:22.781Z,2.43
2018-04-02T20:27:50.177Z,2.70
2018-04-02T20:30:17.558Z,2.83
2018-04-02T20:32:44.923Z,2.40
2018-04-02T20:35:12.250Z,2.30
2018-04-02T20:37:39.598Z,2.30
2018-04-02T20:40:06.927Z,2.20
2018-04-02T20:42:34.278Z,2.13
2018-04-02T20:45:01.603Z,2.60
2018-04-02T20:47:28.962Z,2.33
2018-04-02T20:49:56.306Z,3.07
2018-04-02T20:52:23.654Z,2.60
2018-04-02T20:54:50.982Z,3.20
2018-04-02T20:57:18.428Z,2.80
2018-04-02T20:59:45.764Z,2.77
2018-04-02T21:02:13.129Z,2.63
2018-04-02T21:04:40.462Z,2.97
2018-04-02T21:07:07.830Z,2.40
2018-04-02T21:09:35.161Z,3.03
2018-04-02T21:12:02.510Z,3.10
2018-04-02T21:14:29.838Z,4.50
2018-04-02T21:16:57.199Z,4.87
2018-04-02T21:19:24.526Z,4.03
2018-04-02T21:21:51.883Z,2.97
2018-04-02T21:24:19.206Z,2.93
2018-04-02T21:26:46.569Z,1.90
2018-04-02T21:29:13.902Z,2.40
2018-04-02T21:31:41.288Z,2.40
2018-04-02T21:34:08.621Z,3.00
2018-04-02T21:36:35.975Z,2.60
2018-04-02T21:39:03.314Z,2.53
2018-04-02T21:41:30.699Z,2.63
2018-04-02T21:43:58.030Z,2.57
2018-04-02T21:46:25.704Z,3.10
2018-04-02T21:48:53.090Z,2.57
2018-04-02T21:51:20.443Z,2.10
2018-04-02T21:53:47.768Z,2.97
2018-04-02T21:56:15.123Z,2.17
2018-04-02T21:58:42.449Z,2.10
2018-04-02T22:01:09.815Z,2.07
2018-04-02T22:03:37.148Z,1.80
2018-04-02T22:06:04.480Z,1.70
2018-04-02T22:08:31.834Z,1.80
2018-04-02T22:10:59.215Z,2.30
2018-04-02T22:13:26.567Z,1.80
2018-04-02T22:15:53.894Z,1.87
2018-04-02T22:18:21.256Z,2.40
2018-04-02T22:20:48.590Z,2.10
2018-04-02T22:23:15.942Z,2.03
2018-04-02T22:25:43.270Z,2.10
2018-04-02T22:28:10.633Z,1.67
2018-04-02T22:30:37.957Z,2.10
2018-04-02T22:33:05.311Z,1.47
2018-04-02T22:35:32.644Z,1.80
2018-04-02T22:37:59.995Z,2.20
2018-04-02T22:40:27.331Z,2.00
2018-04-02T22:42:54.689Z,2.30
2018-04-02T22:45:22.029Z,2.03
2018-04-02T22:47:49.415Z,1.93
2018-04-02T22:50:16.771Z,2.40
2018-04-02T22:52:44.131Z,1.40
2018-04-02T22:55:11.455Z,1.87
2018-04-02T22:57:38.817Z,1.90
2018-04-02T23:00:06.144Z,2.27
2018-04-02T23:02:33.291Z,2.30
2018-04-02T23:05:00.645Z,1.93
2018-04-02T23:07:28.027Z,1.90
2018-04-02T23:09:55.362Z,2.10
2018-04-02T23:12:22.720Z,1.40
2018-04-02T23:14:50.046Z,2.10
2018-04-02T23:17:17.414Z,2.83
2018-04-02T23:19:44.741Z,2.40
2018-04-02T23:22:26.980Z,2.20
2018-04-02T23:24:54.315Z,1.73
2018-04-02T23:27:21.668Z,1.70
2018-04-02T23:29:49.020Z,1.83
2018-04-02T23:32:16.382Z,2.00
2018-04-02T23:34:43.713Z,2.00
2018-04-02T23:37:11.056Z,1.90
2018-04-02T23:39:38.410Z,2.03
2018-04-02T23:42:05.734Z,1.80
2018-04-02T23:44:33.106Z,2.43
2018-04-02T23:47:00.433Z,2.00
2018-04-02T23:49:27.778Z,2.00
2018-04-02T23:51:55.119Z,1.70
2018-04-02T23:54:22.487Z,1.67
2018-04-02T23:56:49.811Z,1.83
2018-04-02T23:59:17.162Z,2.23
